Terminal Aerodrome Forecast
Issued by NWS Newport/Morehead City, NC

Home | Current Version | Previous Version | Graphics & Text | Print | Product List | Glossary On
Versions: 1 2 3 4 5 6 7 8 9 10 11 12
579
FTUS42 KMHX 090536
TAFEWN
TAF
KEWN 090536Z 0906/1006 32006KT P6SM SKC
     FM091500 32010G15KT P6SM SKC
     FM092300 VRB03KT P6SM SKC=

USA.gov is the U.S. government's official web portal to all federal, state and local government web resources and services.